sensor_id;sensor_type;location;lat;lon;timestamp;pressure;altitude;pressure_sealevel;temperature;humidity
48390;BME280;34643;47.964;7.982;2023-02-10T00:04:22;98527.72;;;16.25;54.98
48390;BME280;34643;47.964;7.982;2023-02-10T00:09:22;98534.72;;;16.25;55.06
48390;BME280;34643;47.964;7.982;2023-02-10T00:14:23;98541.63;;;16.26;54.87
48390;BME280;34643;47.964;7.982;2023-02-10T00:19:24;98544.16;;;16.27;54.89
48390;BME280;34643;47.964;7.982;2023-02-10T00:24:25;98535.44;;;16.28;54.84
48390;BME280;34643;47.964;7.982;2023-02-10T00:29:25;98534.53;;;16.29;54.69
48390;BME280;34643;47.964;7.982;2023-02-10T00:34:27;98524.09;;;16.29;54.68
48390;BME280;34643;47.964;7.982;2023-02-10T00:39:28;98521.50;;;16.29;54.89
48390;BME280;34643;47.964;7.982;2023-02-10T00:44:28;98514.63;;;16.27;54.77
48390;BME280;34643;47.964;7.982;2023-02-10T00:49:29;98513.75;;;16.28;54.99
48390;BME280;34643;47.964;7.982;2023-02-10T00:54:30;98523.38;;;16.26;54.88
48390;BME280;34643;47.964;7.982;2023-02-10T00:59:30;98530.09;;;16.31;54.95
48390;BME280;34643;47.964;7.982;2023-02-10T01:04:31;98527.53;;;16.30;55.04
48390;BME280;34643;47.964;7.982;2023-02-10T01:09:32;98525.00;;;16.28;54.99
48390;BME280;34643;47.964;7.982;2023-02-10T01:14:32;98526.00;;;16.26;54.91
48390;BME280;34643;47.964;7.982;2023-02-10T01:19:33;98526.88;;;16.25;55.08
48390;BME280;34643;47.964;7.982;2023-02-10T01:24:33;98536.53;;;16.23;55.02
48390;BME280;34643;47.964;7.982;2023-02-10T01:29:33;98537.44;;;16.22;55.02
48390;BME280;34643;47.964;7.982;2023-02-10T01:34:35;98534.00;;;16.21;55.02
48390;BME280;34643;47.964;7.982;2023-02-10T01:39:37;98523.63;;;16.20;54.90
48390;BME280;34643;47.964;7.982;2023-02-10T01:49:39;98527.88;;;16.22;54.92
48390;BME280;34643;47.964;7.982;2023-02-10T01:54:42;98535.53;;;16.25;54.68
48390;BME280;34643;47.964;7.982;2023-02-10T01:59:43;98531.19;;;16.26;54.82
48390;BME280;34643;47.964;7.982;2023-02-10T02:09:47;98535.69;;;16.22;54.87
48390;BME280;34643;47.964;7.982;2023-02-10T02:26:05;98528.84;;;16.20;54.72
48390;BME280;34643;47.964;7.982;2023-02-10T02:41:28;98545.56;;;16.14;54.81
48390;BME280;34643;47.964;7.982;2023-02-10T02:56:46;98536.16;;;16.11;54.46
48390;BME280;34643;47.964;7.982;2023-02-10T03:01:57;98532.72;;;16.09;54.59
48390;BME280;34643;47.964;7.982;2023-02-10T03:06:59;98544.97;;;16.07;54.44
48390;BME280;34643;47.964;7.982;2023-02-10T03:11:59;98539.75;;;16.07;54.53
48390;BME280;34643;47.964;7.982;2023-02-10T03:17:00;98545.13;;;16.04;54.44
48390;BME280;34643;47.964;7.982;2023-02-10T03:22:00;98547.84;;;16.01;54.43
48390;BME280;34643;47.964;7.982;2023-02-10T03:27:00;98538.25;;;16.02;54.31
48390;BME280;34643;47.964;7.982;2023-02-10T03:32:01;98539.91;;;16.04;54.35
48390;BME280;34643;47.964;7.982;2023-02-10T03:37:03;98537.16;;;16.07;54.30
48390;BME280;34643;47.964;7.982;2023-02-10T03:42:04;98553.44;;;16.12;54.10
48390;BME280;34643;47.964;7.982;2023-02-10T03:47:05;98556.84;;;16.14;54.10
48390;BME280;34643;47.964;7.982;2023-02-10T03:52:05;98566.34;;;16.15;54.16
48390;BME280;34643;47.964;7.982;2023-02-10T03:57:05;98569.88;;;16.14;54.08
48390;BME280;34643;47.964;7.982;2023-02-10T04:02:06;98584.66;;;16.14;53.98
48390;BME280;34643;47.964;7.982;2023-02-10T04:07:06;98604.66;;;16.13;53.93
48390;BME280;34643;47.964;7.982;2023-02-10T04:12:07;98594.34;;;16.10;54.06
48390;BME280;34643;47.964;7.982;2023-02-10T04:17:07;98591.69;;;16.12;53.92
48390;BME280;34643;47.964;7.982;2023-02-10T04:22:07;98585.56;;;16.13;54.05
48390;BME280;34643;47.964;7.982;2023-02-10T04:27:08;98585.63;;;16.11;53.84
48390;BME280;34643;47.964;7.982;2023-02-10T04:32:08;98586.59;;;16.09;53.94
48390;BME280;34643;47.964;7.982;2023-02-10T04:37:08;98588.38;;;16.08;53.85
48390;BME280;34643;47.964;7.982;2023-02-10T04:42:09;98591.81;;;16.09;53.89
48390;BME280;34643;47.964;7.982;2023-02-10T04:47:09;98590.03;;;16.09;53.83
48390;BME280;34643;47.964;7.982;2023-02-10T04:52:09;98588.31;;;16.10;53.77
48390;BME280;34643;47.964;7.982;2023-02-10T04:57:09;98594.41;;;16.09;53.68
48390;BME280;34643;47.964;7.982;2023-02-10T05:02:11;98596.13;;;16.10;53.75
48390;BME280;34643;47.964;7.982;2023-02-10T05:07:13;98601.31;;;16.10;53.51
48390;BME280;34643;47.964;7.982;2023-02-10T05:12:13;98602.22;;;16.09;53.67
48390;BME280;34643;47.964;7.982;2023-02-10T05:17:13;98600.47;;;16.09;53.68
48390;BME280;34643;47.964;7.982;2023-02-10T05:22:14;98601.28;;;16.11;53.45
48390;BME280;34643;47.964;7.982;2023-02-10T05:27:14;98604.78;;;16.10;53.47
48390;BME280;34643;47.964;7.982;2023-02-10T05:32:14;98600.41;;;16.11;53.57
48390;BME280;34643;47.964;7.982;2023-02-10T05:37:15;98599.44;;;16.13;53.78
48390;BME280;34643;47.964;7.982;2023-02-10T05:42:15;98602.88;;;16.14;53.26
48390;BME280;34643;47.964;7.982;2023-02-10T05:47:15;98614.59;;;11.82;42.57
48390;BME280;34643;47.964;7.982;2023-02-10T05:52:16;98603.50;;;10.92;41.00
48390;BME280;34643;47.964;7.982;2023-02-10T05:57:16;98616.19;;;13.55;44.26
48390;BME280;34643;47.964;7.982;2023-02-10T06:02:16;98604.69;;;14.72;45.14
48390;BME280;34643;47.964;7.982;2023-02-10T06:07:17;98616.78;;;14.98;45.32
48390;BME280;34643;47.964;7.982;2023-02-10T06:12:17;98612.16;;;15.06;45.87
48390;BME280;34643;47.964;7.982;2023-02-10T06:17:18;98625.00;;;15.11;46.65
48390;BME280;34643;47.964;7.982;2023-02-10T06:22:18;98631.78;;;15.15;46.98
48390;BME280;34643;47.964;7.982;2023-02-10T06:27:18;98627.50;;;15.14;47.28
48390;BME280;34643;47.964;7.982;2023-02-10T06:32:18;98630.88;;;15.16;47.82
48390;BME280;34643;47.964;7.982;2023-02-10T06:37:19;98636.09;;;15.16;48.31
48390;BME280;34643;47.964;7.982;2023-02-10T06:42:19;98644.00;;;15.13;48.35
48390;BME280;34643;47.964;7.982;2023-02-10T06:47:19;98643.06;;;15.15;48.43
48390;BME280;34643;47.964;7.982;2023-02-10T06:52:20;98643.09;;;15.14;48.70
48390;BME280;34643;47.964;7.982;2023-02-10T06:57:21;98646.66;;;15.11;49.06
48390;BME280;34643;47.964;7.982;2023-02-10T07:02:21;98656.25;;;15.09;49.34
48390;BME280;34643;47.964;7.982;2023-02-10T07:07:22;98665.81;;;15.09;49.44
48390;BME280;34643;47.964;7.982;2023-02-10T07:12:22;98661.56;;;15.06;49.78
48390;BME280;34643;47.964;7.982;2023-02-10T07:17:24;98671.13;;;15.06;49.89
48390;BME280;34643;47.964;7.982;2023-02-10T07:22:25;98673.81;;;15.02;49.91
48390;BME280;34643;47.964;7.982;2023-02-10T07:27:25;98678.22;;;15.00;50.10
48390;BME280;34643;47.964;7.982;2023-02-10T07:32:25;98672.16;;;15.01;50.27
48390;BME280;34643;47.964;7.982;2023-02-10T07:37:26;98678.22;;;15.00;50.40
48390;BME280;34643;47.964;7.982;2023-02-10T07:42:26;98683.44;;;15.00;50.41
48390;BME280;34643;47.964;7.982;2023-02-10T07:47:47;98682.59;;;15.00;50.41
48390;BME280;34643;47.964;7.982;2023-02-10T07:52:47;98684.13;;;15.06;50.39
48390;BME280;34643;47.964;7.982;2023-02-10T07:57:48;98690.03;;;15.11;49.96
48390;BME280;34643;47.964;7.982;2023-02-10T08:02:48;98683.00;;;15.13;50.23
48390;BME280;34643;47.964;7.982;2023-02-10T08:07:48;98689.88;;;15.15;50.13
48390;BME280;34643;47.964;7.982;2023-02-10T08:12:49;98691.50;;;15.18;49.98
48390;BME280;34643;47.964;7.982;2023-02-10T08:17:49;98696.72;;;15.18;50.37
48390;BME280;34643;47.964;7.982;2023-02-10T08:22:53;98704.41;;;15.21;50.15
48390;BME280;34643;47.964;7.982;2023-02-10T08:27:53;98704.38;;;15.23;50.23
48390;BME280;34643;47.964;7.982;2023-02-10T08:32:54;98700.84;;;15.24;50.46
48390;BME280;34643;47.964;7.982;2023-02-10T08:37:54;98705.16;;;15.25;50.43
48390;BME280;34643;47.964;7.982;2023-02-10T08:42:54;98698.19;;;15.25;50.54
48390;BME280;34643;47.964;7.982;2023-02-10T08:47:55;98702.50;;;15.26;50.45
48390;BME280;34643;47.964;7.982;2023-02-10T08:52:55;98703.16;;;15.31;50.42
48390;BME280;34643;47.964;7.982;2023-02-10T08:57:55;98698.78;;;15.33;50.51
48390;BME280;34643;47.964;7.982;2023-02-10T09:02:56;98694.25;;;15.38;50.41
48390;BME280;34643;47.964;7.982;2023-02-10T09:07:56;98696.72;;;15.42;50.33
48390;BME280;34643;47.964;7.982;2023-02-10T09:12:56;98694.91;;;15.44;50.20
48390;BME280;34643;47.964;7.982;2023-02-10T09:17:56;98691.38;;;15.46;50.15
48390;BME280;34643;47.964;7.982;2023-02-10T09:22:57;98692.16;;;15.48;50.26
48390;BME280;34643;47.964;7.982;2023-02-10T09:27:57;98690.41;;;15.49;50.26
48390;BME280;34643;47.964;7.982;2023-02-10T09:32:57;98685.09;;;15.52;50.41
48390;BME280;34643;47.964;7.982;2023-02-10T09:37:58;98680.78;;;15.51;50.55
48390;BME280;34643;47.964;7.982;2023-02-10T09:53:11;98680.78;;;15.51;50.62
48390;BME280;34643;47.964;7.982;2023-02-10T09:58:17;98675.66;;;15.49;50.58
48390;BME280;34643;47.964;7.982;2023-02-10T10:03:19;98689.47;;;15.51;50.65
48390;BME280;34643;47.964;7.982;2023-02-10T10:08:22;98680.72;;;15.52;50.72
48390;BME280;34643;47.964;7.982;2023-02-10T10:13:27;98681.66;;;15.51;50.65
48390;BME280;34643;47.964;7.982;2023-02-10T10:18:38;98681.69;;;15.50;50.91
48390;BME280;34643;47.964;7.982;2023-02-10T10:34:11;98686.16;;;15.46;51.17
48390;BME280;34643;47.964;7.982;2023-02-10T10:39:29;98691.38;;;15.46;51.23
48390;BME280;34643;47.964;7.982;2023-02-10T10:44:31;98684.47;;;15.45;51.56
48390;BME280;34643;47.964;7.982;2023-02-10T10:49:32;98682.72;;;15.46;51.21
48390;BME280;34643;47.964;7.982;2023-02-10T10:54:32;98681.69;;;15.50;50.85
48390;BME280;34643;47.964;7.982;2023-02-10T11:04:33;98673.06;;;15.49;50.92
48390;BME280;34643;47.964;7.982;2023-02-10T11:09:40;98672.13;;;15.50;50.89
48390;BME280;34643;47.964;7.982;2023-02-10T11:14:45;98655.78;;;15.47;51.00
48390;BME280;34643;47.964;7.982;2023-02-10T11:19:57;98667.84;;;15.49;50.75
48390;BME280;34643;47.964;7.982;2023-02-10T11:24:59;98664.38;;;15.49;50.96
48390;BME280;34643;47.964;7.982;2023-02-10T11:29:59;98657.50;;;15.48;50.95
48390;BME280;34643;47.964;7.982;2023-02-10T11:35:03;98654.09;;;15.46;51.05
48390;BME280;34643;47.964;7.982;2023-02-10T11:40:18;98649.84;;;15.43;51.10
48390;BME280;34643;47.964;7.982;2023-02-10T11:45:20;98650.75;;;15.42;51.08
48390;BME280;34643;47.964;7.982;2023-02-10T11:50:25;98654.09;;;15.46;50.98
48390;BME280;34643;47.964;7.982;2023-02-10T12:00:51;98658.44;;;15.69;50.69
48390;BME280;34643;47.964;7.982;2023-02-10T12:11:09;98646.56;;;15.85;50.55
48390;BME280;34643;47.964;7.982;2023-02-10T12:21:53;98635.91;;;15.91;50.89
48390;BME280;34643;47.964;7.982;2023-02-10T12:27:02;98635.72;;;15.96;51.06
48390;BME280;34643;47.964;7.982;2023-02-10T12:47:33;98621.06;;;16.15;51.20
48390;BME280;34643;47.964;7.982;2023-02-10T12:52:43;98626.41;;;16.12;51.29
48390;BME280;34643;47.964;7.982;2023-02-10T12:57:46;98622.94;;;16.12;51.28
48390;BME280;34643;47.964;7.982;2023-02-10T13:02:54;98622.91;;;16.13;51.54
48390;BME280;34643;47.964;7.982;2023-02-10T13:07:57;98612.31;;;16.16;51.49
48390;BME280;34643;47.964;7.982;2023-02-10T13:13:11;98604.44;;;16.18;51.49
48390;BME280;34643;47.964;7.982;2023-02-10T13:18:16;98599.31;;;16.16;51.51
48390;BME280;34643;47.964;7.982;2023-02-10T13:28:36;98593.13;;;16.19;51.53
48390;BME280;34643;47.964;7.982;2023-02-10T13:38:46;98591.44;;;16.18;51.58
48390;BME280;34643;47.964;7.982;2023-02-10T13:43:53;98601.78;;;16.20;51.42
48390;BME280;34643;47.964;7.982;2023-02-10T13:48:54;98602.00;;;16.15;51.61
48390;BME280;34643;47.964;7.982;2023-02-10T13:53:56;98607.94;;;16.19;51.53
48390;BME280;34643;47.964;7.982;2023-02-10T13:59:01;98607.00;;;16.20;51.58
48390;BME280;34643;47.964;7.982;2023-02-10T14:09:18;98609.50;;;16.23;51.51
48390;BME280;34643;47.964;7.982;2023-02-10T14:14:20;98609.50;;;16.23;51.61
48390;BME280;34643;47.964;7.982;2023-02-10T14:19:23;98613.00;;;16.22;51.47
48390;BME280;34643;47.964;7.982;2023-02-10T14:24:25;98619.91;;;16.23;51.45
48390;BME280;34643;47.964;7.982;2023-02-10T14:29:28;98626.03;;;16.22;51.51
48390;BME280;34643;47.964;7.982;2023-02-10T14:34:29;98630.34;;;16.23;51.57
48390;BME280;34643;47.964;7.982;2023-02-10T14:39:30;98629.34;;;16.25;51.64
48390;BME280;34643;47.964;7.982;2023-02-10T14:44:41;98633.72;;;16.25;51.42
48390;BME280;34643;47.964;7.982;2023-02-10T14:49:43;98633.59;;;16.28;51.55
48390;BME280;34643;47.964;7.982;2023-02-10T14:54:47;98638.81;;;16.28;51.70
48390;BME280;34643;47.964;7.982;2023-02-10T14:59:55;98638.88;;;16.26;51.62
48390;BME280;34643;47.964;7.982;2023-02-10T15:04:57;98645.78;;;16.27;51.52
48390;BME280;34643;47.964;7.982;2023-02-10T15:09:58;98649.25;;;16.28;51.55
48390;BME280;34643;47.964;7.982;2023-02-10T15:30:20;98654.34;;;16.31;51.54
48390;BME280;34643;47.964;7.982;2023-02-10T15:35:20;98643.03;;;16.30;51.55
48390;BME280;34643;47.964;7.982;2023-02-10T15:40:25;98644.53;;;16.36;51.66
48390;BME280;34643;47.964;7.982;2023-02-10T15:45:26;98646.25;;;16.37;51.72
48390;BME280;34643;47.964;7.982;2023-02-10T15:50:27;98643.72;;;16.35;51.56
48390;BME280;34643;47.964;7.982;2023-02-10T15:55:29;98639.22;;;16.39;51.61
48390;BME280;34643;47.964;7.982;2023-02-10T16:00:31;98650.56;;;16.38;51.54
48390;BME280;34643;47.964;7.982;2023-02-10T16:05:33;98642.88;;;16.35;51.73
48390;BME280;34643;47.964;7.982;2023-02-10T16:10:35;98639.47;;;16.33;51.83
48390;BME280;34643;47.964;7.982;2023-02-10T16:15:35;98643.91;;;16.31;51.68
48390;BME280;34643;47.964;7.982;2023-02-10T16:20:35;98639.78;;;16.25;51.75
48390;BME280;34643;47.964;7.982;2023-02-10T16:25:36;98640.69;;;16.24;51.97
48390;BME280;34643;47.964;7.982;2023-02-10T16:30:36;98636.38;;;16.23;51.77
48390;BME280;34643;47.964;7.982;2023-02-10T16:35:36;98644.41;;;16.19;51.77
48390;BME280;34643;47.964;7.982;2023-02-10T16:40:37;98642.81;;;16.14;51.87
48390;BME280;34643;47.964;7.982;2023-02-10T16:45:41;98645.47;;;16.13;51.90
48390;BME280;34643;47.964;7.982;2023-02-10T16:50:41;98642.22;;;16.08;51.92
48390;BME280;34643;47.964;7.982;2023-02-10T16:55:42;98637.00;;;16.08;51.74
48390;BME280;34643;47.964;7.982;2023-02-10T17:00:42;98651.97;;;16.03;51.82
48390;BME280;34643;47.964;7.982;2023-02-10T17:05:43;98648.50;;;16.02;51.84
48390;BME280;34643;47.964;7.982;2023-02-10T17:10:44;98648.69;;;15.98;51.93
48390;BME280;34643;47.964;7.982;2023-02-10T17:15:45;98654.91;;;15.93;52.05
48390;BME280;34643;47.964;7.982;2023-02-10T17:20:46;98656.78;;;15.90;51.80
48390;BME280;34643;47.964;7.982;2023-02-10T17:25:46;98661.22;;;15.88;51.93
48390;BME280;34643;47.964;7.982;2023-02-10T17:30:47;98665.59;;;15.87;51.97
48390;BME280;34643;47.964;7.982;2023-02-10T17:35:47;98671.78;;;15.85;51.94
48390;BME280;34643;47.964;7.982;2023-02-10T17:40:47;98680.53;;;15.82;51.85
48390;BME280;34643;47.964;7.982;2023-02-10T17:45:48;98672.81;;;15.79;52.32
48390;BME280;34643;47.964;7.982;2023-02-10T17:50:49;98679.84;;;15.77;51.97
48390;BME280;34643;47.964;7.982;2023-02-10T17:55:49;98684.09;;;15.80;51.80
48390;BME280;34643;47.964;7.982;2023-02-10T18:00:50;98691.63;;;15.87;51.66
48390;BME280;34643;47.964;7.982;2023-02-10T18:05:51;98690.31;;;15.99;51.48
48390;BME280;34643;47.964;7.982;2023-02-10T18:10:52;98675.28;;;16.06;51.48
48390;BME280;34643;47.964;7.982;2023-02-10T18:15:53;98670.75;;;16.11;51.47
48390;BME280;34643;47.964;7.982;2023-02-10T18:20:53;98664.38;;;16.18;51.30
48390;BME280;34643;47.964;7.982;2023-02-10T18:25:54;98674.75;;;16.20;51.62
48390;BME280;34643;47.964;7.982;2023-02-10T18:30:58;98671.91;;;16.26;51.65
48390;BME280;34643;47.964;7.982;2023-02-10T18:35:59;98676.19;;;16.27;51.43
48390;BME280;34643;47.964;7.982;2023-02-10T18:40:59;98684.69;;;16.32;51.54
48390;BME280;34643;47.964;7.982;2023-02-10T18:46:00;98682.06;;;16.32;51.61
48390;BME280;34643;47.964;7.982;2023-02-10T18:51:01;98689.88;;;16.32;51.61
48390;BME280;34643;47.964;7.982;2023-02-10T18:56:03;98693.41;;;16.31;51.64
48390;BME280;34643;47.964;7.982;2023-02-10T19:01:08;98699.53;;;16.30;51.76
48390;BME280;34643;47.964;7.982;2023-02-10T19:06:08;98703.91;;;16.29;51.79
48390;BME280;34643;47.964;7.982;2023-02-10T19:11:10;98715.91;;;16.33;51.71
48390;BME280;34643;47.964;7.982;2023-02-10T19:16:11;98709.59;;;16.39;51.91
48390;BME280;34643;47.964;7.982;2023-02-10T19:21:11;98722.72;;;16.36;52.39
48390;BME280;34643;47.964;7.982;2023-02-10T19:26:12;98726.19;;;16.37;52.51
48390;BME280;34643;47.964;7.982;2023-02-10T19:31:13;98743.47;;;16.39;52.38
48390;BME280;34643;47.964;7.982;2023-02-10T19:36:15;98742.56;;;16.40;52.49
48390;BME280;34643;47.964;7.982;2023-02-10T19:41:17;98745.91;;;16.44;52.66
48390;BME280;34643;47.964;7.982;2023-02-10T19:46:18;98742.97;;;16.51;52.82
48390;BME280;34643;47.964;7.982;2023-02-10T19:51:20;98749.97;;;16.51;53.37
48390;BME280;34643;47.964;7.982;2023-02-10T19:56:24;98747.31;;;16.52;53.51
48390;BME280;34643;47.964;7.982;2023-02-10T20:01:24;98743.66;;;16.57;53.24
48390;BME280;34643;47.964;7.982;2023-02-10T20:06:27;98742.88;;;16.54;53.62
48390;BME280;34643;47.964;7.982;2023-02-10T20:11:28;98747.59;;;16.67;53.55
48390;BME280;34643;47.964;7.982;2023-02-10T20:16:28;98736.00;;;16.74;53.63
48390;BME280;34643;47.964;7.982;2023-02-10T20:21:28;98733.13;;;16.80;53.56
48390;BME280;34643;47.964;7.982;2023-02-10T20:26:29;98728.59;;;16.85;53.69
48390;BME280;34643;47.964;7.982;2023-02-10T20:31:29;98718.94;;;16.87;53.71
48390;BME280;34643;47.964;7.982;2023-02-10T20:36:30;98719.13;;;16.83;53.86
48390;BME280;34643;47.964;7.982;2023-02-10T20:41:31;98710.75;;;16.75;53.71
48390;BME280;34643;47.964;7.982;2023-02-10T20:46:31;98720.34;;;16.74;53.76
48390;BME280;34643;47.964;7.982;2023-02-10T20:51:32;98724.72;;;16.73;53.77
48390;BME280;34643;47.964;7.982;2023-02-10T20:56:33;98724.72;;;16.73;53.85
48390;BME280;34643;47.964;7.982;2023-02-10T21:01:33;98721.31;;;16.71;53.88
48390;BME280;34643;47.964;7.982;2023-02-10T21:06:33;98726.53;;;16.71;53.89
48390;BME280;34643;47.964;7.982;2023-02-10T21:11:34;98724.00;;;16.70;53.82
48390;BME280;34643;47.964;7.982;2023-02-10T21:16:36;98724.06;;;16.68;54.10
48390;BME280;34643;47.964;7.982;2023-02-10T21:21:36;98724.97;;;16.67;53.99
48390;BME280;34643;47.964;7.982;2023-02-10T21:26:37;98715.53;;;16.65;54.10
48390;BME280;34643;47.964;7.982;2023-02-10T21:31:38;98718.78;;;16.70;53.83
48390;BME280;34643;47.964;7.982;2023-02-10T21:36:38;98708.22;;;16.73;53.93
48390;BME280;34643;47.964;7.982;2023-02-10T21:41:39;98703.78;;;16.75;53.99
48390;BME280;34643;47.964;7.982;2023-02-10T21:46:45;98706.28;;;16.78;54.10
48390;BME280;34643;47.964;7.982;2023-02-10T21:51:46;98707.09;;;16.79;54.21
48390;BME280;34643;47.964;7.982;2023-02-10T21:56:46;98706.84;;;16.86;54.05
48390;BME280;34643;47.964;7.982;2023-02-10T22:01:47;98708.59;;;16.86;54.16
48390;BME280;34643;47.964;7.982;2023-02-10T22:06:47;98696.47;;;16.85;54.72
48390;BME280;34643;47.964;7.982;2023-02-10T22:11:47;98694.00;;;16.80;54.83
48390;BME280;34643;47.964;7.982;2023-02-10T22:16:48;98701.13;;;16.77;55.45
48390;BME280;34643;47.964;7.982;2023-02-10T22:21:48;98694.16;;;16.77;55.08
48390;BME280;34643;47.964;7.982;2023-02-10T22:26:48;98695.00;;;16.78;55.17
48390;BME280;34643;47.964;7.982;2023-02-10T22:31:49;98693.34;;;16.75;54.88
48390;BME280;34643;47.964;7.982;2023-02-10T22:36:51;98691.63;;;16.76;55.07
48390;BME280;34643;47.964;7.982;2023-02-10T22:41:51;98698.56;;;16.75;54.97
48390;BME280;34643;47.964;7.982;2023-02-10T22:46:51;98689.91;;;16.75;55.11
48390;BME280;34643;47.964;7.982;2023-02-10T22:51:52;98701.97;;;16.77;54.95
48390;BME280;34643;47.964;7.982;2023-02-10T22:56:52;98700.16;;;16.79;54.90
48390;BME280;34643;47.964;7.982;2023-02-10T23:01:52;98692.34;;;16.79;55.01
48390;BME280;34643;47.964;7.982;2023-02-10T23:06:52;98700.09;;;16.81;55.09
48390;BME280;34643;47.964;7.982;2023-02-10T23:11:53;98691.41;;;16.80;55.22
48390;BME280;34643;47.964;7.982;2023-02-10T23:16:53;98691.41;;;16.80;55.50
48390;BME280;34643;47.964;7.982;2023-02-10T23:21:54;98694.00;;;16.80;55.47
48390;BME280;34643;47.964;7.982;2023-02-10T23:26:56;98687.91;;;16.81;55.42
48390;BME280;34643;47.964;7.982;2023-02-10T23:31:56;98681.75;;;16.82;55.43
48390;BME280;34643;47.964;7.982;2023-02-10T23:36:57;98669.56;;;16.84;55.57
48390;BME280;34643;47.964;7.982;2023-02-10T23:41:59;98666.00;;;16.85;55.63
48390;BME280;34643;47.964;7.982;2023-02-10T23:47:00;98662.50;;;16.86;55.75
48390;BME280;34643;47.964;7.982;2023-02-10T23:52:00;98652.13;;;16.85;55.68
48390;BME280;34643;47.964;7.982;2023-02-10T23:57:00;98638.34;;;16.81;56.02
